Latest Weather Observations for Jimna

IDQ60801

Issued at 6:35 pm EST Wednesday 26 November 2014 (issued every 30 minutes, with the page automatically refreshed every 10 minutes)

About weather observations | Map of weather stations | Latest weather observations for QLD | Other Formats
Station Details ID: 040651 Name: JIMNA FORESTRY Lat: -26.66 Lon: 152.46 Height: 523.0 m
Data from the previous 72 hours. | See also: Recent months at Jimna
Date/Time
EST
Temp
°C
App
Temp
°C
Dew
Point
Rel
Hum
%
Delta-T
°C
Wind Press
QNH
hPa
Press
MSL
hPa
Rain
since 9 am
mm
Dir
 
Spd
km/h
Gust
km/h
Spd
kts
Gust
kts
26/06:30pm 22.7 - 16.3 67 4.0 - - - - - - - 0.0
26/06:00pm 23.4 - 16.4 64 4.4 - - - - - - - 0.0
26/05:30pm 24.0 - 16.3 62 4.8 - - - - - - - 0.0
26/05:00pm 24.7 - 16.4 60 5.2 - - - - - - - 0.0
26/04:30pm 25.1 - 16.3 58 5.5 - - - - - - - 0.0
26/04:00pm 26.2 - 15.9 53 6.4 - - - - - - - 0.0
26/03:30pm 26.9 - 15.9 51 6.9 - - - - - - - 0.0
26/03:00pm 27.6 - 13.5 41 8.5 - - - - - - - 0.0
26/02:30pm 28.7 - 12.2 36 9.8 - - - - - - - 0.0
26/02:00pm 29.1 - 13.3 37 9.6 - - - - - - - 0.0
26/01:30pm 28.8 - 11.4 34 10.2 - - - - - - - 0.0
26/01:00pm 28.3 - 12.6 38 9.4 - - - - - - - 0.0
26/12:30pm 27.1 - 13.1 42 8.4 - - - - - - - 0.0
26/12:00pm 27.4 - 13.0 41 8.6 - - - - - - - 0.0
26/11:30am 26.3 - 13.8 46 7.6 - - - - - - - 0.0
26/11:00am 26.5 - 12.2 41 8.4 - - - - - - - 0.0
26/10:30am 26.8 - 13.5 44 8.0 - - - - - - - 0.0
26/10:00am 25.2 - 14.3 50 6.6 - - - - - - - 0.0
26/09:30am 25.3 - 15.3 54 6.2 - - - - - - - 0.0
26/09:00am 23.7 - 15.2 59 5.2 - - - - - - - 0.0
26/08:30am 24.3 - 16.3 61 5.0 - - - - - - - 0.0
26/08:00am 23.9 - 17.2 66 4.2 - - - - - - - 0.0
26/07:30am 22.0 - 16.7 72 3.3 - - - - - - - 0.0
26/07:00am 21.5 - 16.7 74 3.0 - - - - - - - 0.0
26/06:30am 20.7 - 17.9 84 1.8 - - - - - - - 0.0
26/06:00am 20.2 - 18.0 87 1.4 - - - - - - - 0.0
26/05:30am 20.0 - 18.0 88 1.3 - - - - - - - 0.0
26/05:00am 20.2 - 18.0 87 1.4 - - - - - - - 0.0
26/04:30am 20.3 - 18.2 88 1.3 - - - - - - - 0.0
26/04:00am 20.2 - 18.1 88 1.3 - - - - - - - 0.0
26/03:30am 20.3 - 18.4 89 1.2 - - - - - - - 0.0
26/03:00am 20.2 - 18.3 89 1.2 - - - - - - - 0.0
26/02:30am 20.4 - 18.3 88 1.3 - - - - - - - 0.0
26/02:00am 20.5 - 18.3 87 1.4 - - - - - - - 0.0
26/01:30am 20.8 - 18.4 86 1.5 - - - - - - - 0.0
26/01:00am 21.1 - 18.7 86 1.5 - - - - - - - 0.0
26/12:30am 21.3 - 18.5 84 1.8 - - - - - - - 0.0
26/12:00am 21.5 - 18.7 84 1.8 - - - - - - - 0.0
 
Date/Time
EST
Temp
°C
App
Temp
°C
Dew
Point
Rel
Hum
%
Delta-T
°C
Wind Press
QNH
hPa
Press
MSL
hPa
Rain
since 9 am
mm
Dir
 
Spd
km/h
Gust
km/h
Spd
kts
Gust
kts
25/11:30pm 21.8 - 18.6 82 2.1 - - - - - - - 0.0
25/11:00pm 21.9 - 18.7 82 2.1 - - - - - - - 0.0
25/10:30pm 22.0 - 18.6 81 2.2 - - - - - - - 0.0
25/10:00pm 22.1 - 18.7 81 2.2 - - - - - - - 0.0
25/09:30pm 22.2 - 18.2 78 2.6 - - - - - - - 0.0
25/09:00pm 22.5 - 18.1 76 2.8 - - - - - - - 0.0
25/08:30pm 23.1 - 18.4 75 3.0 - - - - - - - 0.0
25/08:00pm 23.7 - 18.4 72 3.4 - - - - - - - 0.0
25/07:30pm 24.5 - 18.4 69 3.9 - - - - - - - 0.0
25/07:00pm 25.4 - 18.1 64 4.7 - - - - - - - 0.0
25/06:30pm 26.4 - 18.0 60 5.4 - - - - - - - 0.0
25/06:00pm 27.6 - 15.9 49 7.3 - - - - - - - 0.0
25/05:30pm 29.1 - 12.1 35 10.1 - - - - - - - 0.0
25/05:00pm 30.2 - 9.7 28 11.8 - - - - - - - 0.0
25/04:30pm 30.9 - 10.3 28 12.0 - - - - - - - 0.0
25/04:00pm 31.3 - 10.6 28 12.2 - - - - - - - 0.0
25/03:30pm 31.7 - 11.5 29 12.0 - - - - - - - 0.0
25/03:00pm 31.7 - 11.5 29 12.0 - - - - - - - 0.0
25/02:30pm 31.7 - 11.5 29 12.0 - - - - - - - 0.0
25/02:00pm 31.9 - 11.1 28 12.3 - - - - - - - 0.0
25/01:30pm 31.5 - 12.3 31 11.6 - - - - - - - 0.0
25/01:00pm 31.5 - 12.8 32 11.4 - - - - - - - 0.0
25/12:30pm 30.2 - 12.1 32 10.8 - - - - - - - 0.0
25/12:00pm 29.9 - 11.9 33 10.7 - - - - - - - 0.0
25/11:30am 29.1 - 11.2 33 10.5 - - - - - - - 0.0
25/11:00am 28.2 - 11.3 35 9.9 - - - - - - - 0.0
25/10:30am 27.8 - 10.5 34 10.0 - - - - - - - 0.0
25/10:00am 26.7 - 10.4 36 9.3 - - - - - - - 0.0
25/09:30am 25.8 - 12.6 44 7.8 - - - - - - - 0.0
25/09:00am 24.4 - 14.2 53 6.2 - - - - - - - 0.0
25/08:30am 23.2 - 14.5 58 5.3 - - - - - - - 0.0
25/08:00am 22.3 - 14.4 61 4.7 - - - - - - - 0.0
25/07:30am 21.6 - 14.7 65 4.2 - - - - - - - 0.0
25/07:00am 20.5 - 14.6 69 3.5 - - - - - - - 0.0
25/06:30am 19.2 - 15.9 81 2.0 - - - - - - - 0.0
25/06:00am 17.8 - 15.6 87 1.3 - - - - - - - 0.0
25/05:30am 17.0 - 15.5 91 0.9 - - - - - - - 0.0
25/05:00am 16.4 - 15.1 92 0.8 - - - - - - - 0.0
25/04:30am 16.3 - 14.7 90 0.9 - - - - - - - 0.0
25/04:00am 16.9 - 14.9 88 1.2 - - - - - - - 0.0
25/03:30am 17.3 - 15.1 87 1.3 - - - - - - - 0.0
25/03:00am 18.1 - 15.9 87 1.3 - - - - - - - 0.0
25/02:30am 18.5 - 15.9 85 1.6 - - - - - - - 0.0
25/02:00am 18.9 - 16.3 85 1.6 - - - - - - - 0.0
25/01:30am 19.1 - 16.3 84 1.7 - - - - - - - 0.0
25/01:00am 19.2 - 16.4 84 1.7 - - - - - - - 0.0
25/12:30am 19.4 - 16.2 82 2.0 - - - - - - - 0.0
25/12:00am 19.6 - 16.4 82 2.0 - - - - - - - 0.0
 
Date/Time
EST
Temp
°C
App
Temp
°C
Dew
Point
Rel
Hum
%
Delta-T
°C
Wind Press
QNH
hPa
Press
MSL
hPa
Rain
since 9 am
mm
Dir
 
Spd
km/h
Gust
km/h
Spd
kts
Gust
kts
24/11:30pm 19.7 - 16.3 81 2.1 - - - - - - - 0.0
24/11:00pm 19.8 - 16.6 82 2.0 - - - - - - - 0.0
24/10:30pm 20.3 - 16.9 81 2.1 - - - - - - - 0.0
24/10:00pm 20.5 - 17.3 82 2.0 - - - - - - - 0.0
24/09:30pm 20.7 - 17.5 82 2.0 - - - - - - - 0.0
24/09:00pm 20.9 - 17.7 82 2.0 - - - - - - - 0.0
24/08:30pm 21.1 - 17.7 81 2.1 - - - - - - - 0.0
24/08:00pm 21.6 - 17.2 76 2.8 - - - - - - - 0.0
24/07:30pm 22.5 - 17.0 71 3.4 - - - - - - - 0.0
24/07:00pm 23.2 - 17.0 68 3.9 - - - - - - - 0.0
24/06:30pm 24.1 - 17.4 66 4.3 - - - - - - - 0.0
24/06:00pm 24.9 - 17.4 63 4.8 - - - - - - - 0.0
24/05:30pm 26.0 - 17.4 59 5.5 - - - - - - - 0.0
24/05:00pm 27.3 - 17.2 54 6.5 - - - - - - - 0.0
24/04:30pm 29.0 - 16.5 46 8.0 - - - - - - - 0.0
24/04:00pm 30.5 - 11.0 30 11.5 - - - - - - - 0.0
24/03:30pm 31.0 - 11.4 30 11.6 - - - - - - - 0.0
24/03:00pm 30.5 - 10.5 29 11.7 - - - - - - - 0.0
24/02:30pm 30.8 - 10.2 28 12.0 - - - - - - - 0.0
24/02:00pm 30.2 - 9.7 28 11.8 - - - - - - - 0.0
24/01:30pm 30.7 - 10.1 28 12.0 - - - - - - - 0.0
24/01:00pm 29.8 - 10.4 30 11.3 - - - - - - - 0.0
24/12:30pm 29.2 - 11.7 34 10.4 - - - - - - - 0.0
24/12:00pm 28.2 - 11.3 35 9.9 - - - - - - - 0.0
24/11:30am 28.0 - 12.0 37 9.5 - - - - - - - 0.0
24/11:00am 27.3 - 14.0 44 8.1 - - - - - - - 0.0
24/10:30am 26.5 - 12.5 41 8.3 - - - - - - - 0.0
24/10:00am 26.3 - 14.1 47 7.4 - - - - - - - 0.0
24/09:30am 25.4 - 13.6 48 7.1 - - - - - - - 0.0
24/09:00am 24.3 - 13.2 50 6.6 - - - - - - - 0.0
24/08:30am 22.8 - 14.4 59 5.1 - - - - - - - 0.0
24/08:00am 21.8 - 14.9 65 4.2 - - - - - - - 0.0
24/07:30am 21.2 - 16.2 73 3.1 - - - - - - - 0.0
24/07:00am 20.3 - 15.9 76 2.7 - - - - - - - 0.0
24/06:30am 20.2 - 17.0 82 2.0 - - - - - - - 0.0
24/06:00am 19.4 - 16.8 85 1.6 - - - - - - - 0.0
24/05:30am 19.2 - 16.6 85 1.6 - - - - - - - 0.0
24/05:00am 19.5 - 16.7 84 1.7 - - - - - - - 0.0
24/04:30am 19.6 - 17.0 85 1.6 - - - - - - - 0.0
24/04:00am 19.5 - 16.9 85 1.6 - - - - - - - 0.0
24/03:30am 19.6 - 17.0 85 1.6 - - - - - - - 0.0
24/03:00am 19.7 - 16.9 84 1.7 - - - - - - - 0.0
24/02:30am 19.9 - 17.1 84 1.7 - - - - - - - 0.0
24/02:00am 19.9 - 17.1 84 1.7 - - - - - - - 0.0
24/01:30am 19.8 - 17.0 84 1.7 - - - - - - - 0.0
24/01:00am 20.1 - 17.3 84 1.7 - - - - - - - 0.0
24/12:30am 20.1 - 17.5 85 1.6 - - - - - - - 0.0
24/12:00am 19.9 - 17.5 86 1.5 - - - - - - - 0.0
 
Date/Time
EST
Temp
°C
App
Temp
°C
Dew
Point
Rel
Hum
%
Delta-T
°C
Wind Press
QNH
hPa
Press
MSL
hPa
Rain
since 9 am
mm
Dir
 
Spd
km/h
Gust
km/h
Spd
kts
Gust
kts
23/11:30pm 19.8 - 17.6 87 1.4 - - - - - - - 0.0
23/11:00pm 20.1 - 17.5 85 1.6 - - - - - - - 0.0
23/10:30pm 20.4 - 17.4 83 1.9 - - - - - - - 0.0
23/10:00pm 20.8 - 17.4 81 2.1 - - - - - - - 0.0
23/09:30pm 21.3 - 17.3 78 2.5 - - - - - - - 0.0
23/09:00pm 21.9 - 17.3 75 2.9 - - - - - - - 0.0
23/08:30pm 22.6 - 17.1 71 3.5 - - - - - - - 0.0
23/08:00pm 23.1 - 17.1 69 3.8 - - - - - - - 0.0
23/07:30pm 23.7 - 17.2 67 4.1 - - - - - - - 0.0
23/07:00pm 24.5 - 17.2 63 4.6 - - - - - - - 0.0

Other Formats:

Comma delimited format used in spreadsheet applications
http://www.bom.gov.au/fwo/IDQ60801/IDQ60801.94557.axf

JavaScript Object Notation format (JSON) in row-major order
http://www.bom.gov.au/fwo/IDQ60801/IDQ60801.94557.json